Ascanius — V7FS9 — position and weather

sailwx.info

Track history (hours):
 
Tides and Currents Weather Stations Pressure Air Temp Water Temp Dewpoint Dewpoint Depression Visibility Wind Speed Wind Dir Waves Ship Positions

Ascanius

Last reported at 2016-Aug-26 18:33 UTC. Time now 2016-Aug-29 23:29 UTC.
Position N 29°24' E 032°37'.

Length 225 m; draft 12.6 m.

Type: Cargo ship. MMSI: 538002012.

Date/timePositionNaut miles runAvg speedWind from/ knotsBaromVisibWave heightAir tempDewpointWater temp
2016-Aug-26 18:33N 29°24' E 032°37'127 3.1
2016-Aug-25 01:31N 31°30' E 032°15'54 9.0
2016-Aug-24 19:34N 32°08' E 031°30'1111.1
2016-Aug-24 18:34N 32°16' E 031°21'1110.8
2016-Aug-24 17:31N 32°25' E 031°12'1110.7
2016-Aug-24 16:29N 32°33' E 031°04'1010.6
2016-Aug-24 15:34N 32°41' E 030°56'1110.8
2016-Aug-24 14:33N 32°49' E 030°48'1111.0
2016-Aug-24 13:33N 32°57' E 030°39'1310.9
2016-Aug-24 12:20N 33°07' E 030°29'2310.9
2016-Aug-24 10:11N 33°25' E 030°10'710.8
2016-Aug-24 09:34N 33°30' E 030°05'1110.9
2016-Aug-24 08:31N 33°38' E 029°56'1111.4
2016-Aug-24 07:32N 33°47' E 029°48'1111.1
2016-Aug-24 06:33N 33°55' E 029°39'27611.4
2016-Aug-23 06:20N 37°22' E 025°55'3211.6
2016-Aug-23 03:34N 37°52' E 025°39'12311.0
2016-Aug-22 16:23N 39°55' E 025°48'149 7.8
2016-Aug-21 21:18N 40°54' E 028°48'7 9.2
2016-Aug-21 20:32N 40°57' E 028°56'336 6.7
2016-Aug-19 18:32N 46°22' E 030°55'1010.0
2016-Aug-19 17:33N 46°32' E 030°55'7 7.1
2016-Aug-19 16:32N 46°35' E 031°05'6 5.6
2016-Aug-19 15:25N 46°34' E 031°14'0 0.2
2016-Aug-19 13:21N 46°34' E 031°14'0 0.0
2016-Aug-19 01:33N 46°34' E 031°14'0 0.0
2016-Aug-18 18:15N 46°34' E 031°14'0 0.0
2016-Aug-17 22:21N 46°34' E 031°14'0 0.0
2016-Aug-17 21:24N 46°34' E 031°14'0 0.0
2016-Aug-17 20:27N 46°34' E 031°14'0 0.0
2016-Aug-17 19:30N 46°34' E 031°14'0 0.0
2016-Aug-17 18:06N 46°34' E 031°14'0 0.0
2016-Aug-17 17:27N 46°34' E 031°14'0 0.0
2016-Aug-17 16:33N 46°34' E 031°14'0 0.0
2016-Aug-17 15:27N 46°34' E 031°14'0 0.0
2016-Aug-17 00:09N 46°34' E 031°14'0 0.0
2016-Aug-16 22:09N 46°34' E 031°14'0 0.0
2016-Aug-16 21:03N 46°34' E 031°14'0 0.0
2016-Aug-16 20:27N 46°34' E 031°14'  
Track history (hours):
 
Tides and Currents Weather Stations Pressure Air Temp Water Temp Dewpoint Dewpoint Depression Visibility Wind Speed Wind Dir Waves Ship Positions

Ascanius

Last reported at 2016-Aug-26 18:33 UTC. Time now 2016-Aug-29 23:29 UTC.
Position N 29°24' E 032°37'.

Length 225 m; draft 12.6 m.

Type: Cargo ship. MMSI: 538002012.

Date/timePositionNaut miles runAvg speedWind from/ knotsBaromVisibWave heightAir tempDewpointWater temp
2016-Aug-26 18:33N 29°24' E 032°37'127 3.1
2016-Aug-25 01:31N 31°30' E 032°15'54 9.0
2016-Aug-24 19:34N 32°08' E 031°30'1111.1
2016-Aug-24 18:34N 32°16' E 031°21'1110.8
2016-Aug-24 17:31N 32°25' E 031°12'1110.7
2016-Aug-24 16:29N 32°33' E 031°04'1010.6
2016-Aug-24 15:34N 32°41' E 030°56'1110.8
2016-Aug-24 14:33N 32°49' E 030°48'1111.0
2016-Aug-24 13:33N 32°57' E 030°39'1310.9
2016-Aug-24 12:20N 33°07' E 030°29'2310.9
2016-Aug-24 10:11N 33°25' E 030°10'710.8
2016-Aug-24 09:34N 33°30' E 030°05'1110.9
2016-Aug-24 08:31N 33°38' E 029°56'1111.4
2016-Aug-24 07:32N 33°47' E 029°48'1111.1
2016-Aug-24 06:33N 33°55' E 029°39'27611.4
2016-Aug-23 06:20N 37°22' E 025°55'3211.6
2016-Aug-23 03:34N 37°52' E 025°39'12311.0
2016-Aug-22 16:23N 39°55' E 025°48'149 7.8
2016-Aug-21 21:18N 40°54' E 028°48'7 9.2
2016-Aug-21 20:32N 40°57' E 028°56'336 6.7
2016-Aug-19 18:32N 46°22' E 030°55'1010.0
2016-Aug-19 17:33N 46°32' E 030°55'7 7.1
2016-Aug-19 16:32N 46°35' E 031°05'6 5.6
2016-Aug-19 15:25N 46°34' E 031°14'0 0.2
2016-Aug-19 13:21N 46°34' E 031°14'0 0.0
2016-Aug-19 01:33N 46°34' E 031°14'0 0.0
2016-Aug-18 18:15N 46°34' E 031°14'0 0.0
2016-Aug-17 22:21N 46°34' E 031°14'0 0.0
2016-Aug-17 21:24N 46°34' E 031°14'0 0.0
2016-Aug-17 20:27N 46°34' E 031°14'0 0.0
2016-Aug-17 19:30N 46°34' E 031°14'0 0.0
2016-Aug-17 18:06N 46°34' E 031°14'0 0.0
2016-Aug-17 17:27N 46°34' E 031°14'0 0.0
2016-Aug-17 16:33N 46°34' E 031°14'0 0.0
2016-Aug-17 15:27N 46°34' E 031°14'0 0.0
2016-Aug-17 00:09N 46°34' E 031°14'0 0.0
2016-Aug-16 22:09N 46°34' E 031°14'0 0.0
2016-Aug-16 21:03N 46°34' E 031°14'0 0.0
2016-Aug-16 20:27N 46°34' E 031°14'  

Dump ship's entire track history